Archival Weather

Heathrow

London, United Kingdom (EGLL)

Report from: Sunday, March 19, 2023 12:50 AM GMT
Current time: Wednesday, May 29, 2024 10:31 AM BST

Current weather – Weather history – Daily summaries
Weather forecast

Present weatherLight rain
Temperature9.0°C (48.2°F)
Wind chill6.3°C (43.3°F)
Dew point8.0°C (46.4°F)
Winds 10 kts (5.1 m/s, 11.5 mph) West (280°)
Visibility5.6 mi. (9 km)
Clouds Scattered clouds 800 ft. (244 m)
Ceiling: Overcast 1,100 ft. (335 m)
Altimeter29.83 in.Hg (1010 mB)
Relative humidity93 %
Density altitude-455 ft. (-139 m)
Remarks Fully automated report
Corrected report
No significant changes expected in the next two hours
Flight conditions Marginal Visual Meteorological Conditions
Raw dataCOR EGLL 190050Z AUTO 28010KT 9000 -RA SCT008 OVC011 09/08 Q1010 NOSIG
An error has occurred. This application may no longer respond until reloaded. Reload 🗙